Time;durP1;ratioP1;P1;durP2;ratioP2;P2;SDS_P1;SDS_P2;PMS_P1;PMS_P2;Temp;Humidity;BMP_temperature;BMP_pressure;BME280_temperature;BME280_humidity;BME280_pressure;Samples;Min_cycle;Max_cycle;Signal;HPM_P1;HPM_P2
2023/10/12 00:05:00;;;;;;;7.50;3.75;;;19.20;98.70;;;;;;12706218;23;20207;-82
2023/10/12 00:15:23;;;;;;;3.78;3.20;;;19.10;97.80;;;;;;12728946;23;20208;-83
2023/10/12 00:25:34;;;;;;;4.50;3.65;;;19.20;97.50;;;;;;12728948;23;20176;-83
2023/10/12 00:30:36;;;;;;;4.82;3.03;;;19.30;98.50;;;;;;12729493;23;20200;-83
2023/10/12 00:35:39;;;;;;;4.43;3.17;;;19.30;98.40;;;;;;12729833;23;20165;-83
2023/10/12 00:41:02;;;;;;;8.10;3.83;;;19.10;97.50;;;;;;12737079;23;20239;-83
2023/10/12 00:51:30;;;;;;;5.28;3.72;;;19.20;97.20;;;;;;12702166;23;20262;-83
2023/10/12 00:56:36;;;;;;;6.63;3.17;;;19.20;96.60;;;;;;12734047;23;20247;-83
2023/10/12 01:01:38;;;;;;;5.55;3.50;;;19.20;97.50;;;;;;12703952;23;20180;-83
2023/10/12 01:06:41;;;;;;;7.18;3.80;;;19.40;96.60;;;;;;12702520;23;20196;-83
2023/10/12 01:12:00;;;;;;;7.63;4.07;;;19.30;97.20;;;;;;12702329;23;20180;-83
2023/10/12 01:17:08;;;;;;;6.80;3.92;;;19.30;96.60;;;;;;12702572;23;20629;-83
2023/10/12 01:22:14;;;;;;;14.60;4.55;;;19.40;96.10;;;;;;12745109;23;20223;-83
2023/10/12 01:27:20;;;;;;;7.18;3.75;;;19.30;96.10;;;;;;12703125;23;20577;-82
2023/10/12 01:32:27;;;;;;;6.28;3.25;;;19.20;96.10;;;;;;12705372;23;20176;-82
2023/10/12 01:37:41;;;;;;;4.40;3.28;;;19.20;97.00;;;;;;12706032;23;20522;-83
2023/10/12 01:47:55;;;;;;;7.22;3.65;;;19.20;96.70;;;;;;12750701;23;20573;-83
2023/10/12 01:52:58;;;;;;;5.05;2.75;;;19.00;97.10;;;;;;12681654;23;20204;-82
2023/10/12 01:58:04;;;;;;;3.90;3.50;;;19.10;97.70;;;;;;12705997;23;20223;-82
2023/10/12 02:03:31;;;;;;;8.95;3.78;;;19.00;97.90;;;;;;12705259;23;20180;-83
2023/10/12 02:08:39;;;;;;;7.47;2.78;;;19.00;97.70;;;;;;12705290;23;20196;-83
2023/10/12 02:13:47;;;;;;;5.90;3.53;;;19.20;97.80;;;;;;12682314;23;20172;-82
2023/10/12 02:18:53;;;;;;;7.85;3.72;;;19.10;97.80;;;;;;12750032;23;20678;-82
2023/10/12 02:23:57;;;;;;;6.03;3.55;;;19.10;97.60;;;;;;12704939;23;20263;-82
2023/10/12 02:34:16;;;;;;;8.95;4.05;;;18.80;97.80;;;;;;12731141;23;20176;-83
2023/10/12 02:39:21;;;;;;;6.25;3.67;;;18.90;97.60;;;;;;12706174;23;20215;-83
2023/10/12 02:44:24;;;;;;;3.90;3.10;;;18.90;97.80;;;;;;12705716;23;20507;-82
2023/10/12 02:49:38;;;;;;;9.93;3.85;;;18.90;97.90;;;;;;12731566;23;20189;-82
2023/10/12 02:54:51;;;;;;;6.88;3.65;;;18.90;97.40;;;;;;12731100;23;20246;-82
2023/10/12 03:00:32;;;;;;;2.28;2.00;;;18.90;98.20;;;;;;12747893;23;20196;-82
2023/10/12 03:05:46;;;;;;;9.82;4.32;;;18.90;98.30;;;;;;12703687;23;20511;-82
2023/10/12 03:21:17;;;;;;;6.85;3.33;;;19.10;98.10;;;;;;12701271;23;20173;-82
2023/10/12 03:26:24;;;;;;;6.00;3.30;;;18.80;97.80;;;;;;12736198;23;20485;-82
2023/10/12 03:31:46;;;;;;;5.32;3.33;;;18.90;98.00;;;;;;12703295;23;20193;-82
2023/10/12 03:36:49;;;;;;;7.28;4.45;;;18.90;98.60;;;;;;12704353;23;20227;-82
2023/10/12 03:46:59;;;;;;;11.13;3.85;;;18.90;98.50;;;;;;12729888;23;20219;-82
2023/10/12 03:52:14;;;;;;;5.18;3.42;;;18.90;97.90;;;;;;12745268;23;20189;-83
2023/10/12 03:57:20;;;;;;;7.80;3.20;;;19.10;98.20;;;;;;12731829;23;20516;-82
2023/10/12 04:02:24;;;;;;;11.18;3.35;;;19.00;98.20;;;;;;12703492;23;20200;-83
2023/10/12 04:13:06;;;;;;;4.43;2.60;;;18.90;98.60;;;;;;12729419;23;20238;-83
2023/10/12 04:18:13;;;;;;;6.13;3.30;;;19.00;98.80;;;;;;12703721;23;20172;-82
2023/10/12 04:28:36;;;;;;;5.28;3.45;;;18.70;98.50;;;;;;12745724;23;20259;-82
2023/10/12 04:33:43;;;;;;;8.63;3.30;;;18.70;99.10;;;;;;12727672;23;20558;-82
2023/10/12 04:38:46;;;;;;;9.38;3.97;;;18.50;99.10;;;;;;12746416;23;20180;-83
2023/10/12 04:43:53;;;;;;;9.75;4.30;;;18.60;99.10;;;;;;12729028;23;20570;-83
2023/10/12 04:49:29;;;;;;;6.38;3.63;;;18.60;99.10;;;;;;12729239;23;20200;-82
2023/10/12 04:54:25;;;;;;;5.55;3.50;;;18.60;99.10;;;;;;12701606;23;20204;-83
2023/10/12 04:59:42;;;;;;;5.90;3.72;;;18.50;99.40;;;;;;12728843;23;20701;-82
2023/10/12 05:09:50;;;;;;;9.05;4.40;;;18.70;99.60;;;;;;12745383;23;20519;-82
2023/10/12 05:14:56;;;;;;;7.80;3.83;;;18.60;99.40;;;;;;12732496;23;20231;-83
2023/10/12 05:19:58;;;;;;;6.13;3.67;;;18.50;99.60;;;;;;12749478;23;20231;-82
2023/10/12 05:25:01;;;;;;;6.82;2.97;;;18.60;99.50;;;;;;12732802;23;20172;-84
2023/10/12 05:30:06;;;;;;;3.88;2.92;;;18.60;99.70;;;;;;12705889;23;20196;-82
2023/10/12 05:35:15;;;;;;;4.28;3.08;;;18.40;99.90;;;;;;12705832;23;20176;-83
2023/10/12 05:40:18;;;;;;;8.95;4.40;;;18.50;99.90;;;;;;12744154;23;20172;-82
2023/10/12 05:45:31;;;;;;;13.50;3.50;;;18.30;99.90;;;;;;12731353;23;20227;-83
2023/10/12 05:50:35;;;;;;;6.43;3.72;;;18.30;99.90;;;;;;12706457;23;20818;-82
2023/10/12 05:55:40;;;;;;;9.25;3.33;;;18.30;99.90;;;;;;12729799;23;20559;-81
2023/10/12 06:00:47;;;;;;;6.53;3.63;;;18.50;99.90;;;;;;12731814;23;20604;-82
2023/10/12 06:05:51;;;;;;;8.82;4.35;;;18.30;99.90;;;;;;12732090;23;20172;-81
2023/10/12 06:10:54;;;;;;;15.17;4.53;;;18.70;99.90;;;;;;12731147;23;20213;-81
2023/10/12 06:15:57;;;;;;;10.68;5.00;;;18.60;99.90;;;;;;12730800;23;20271;-81
2023/10/12 06:21:06;;;;;;;11.02;4.00;;;18.50;99.90;;;;;;12730239;23;20169;-80
2023/10/12 06:26:15;;;;;;;13.43;4.53;;;18.50;99.90;;;;;;12729465;23;20204;-80
2023/10/12 06:31:21;;;;;;;18.20;4.38;;;18.60;99.90;;;;;;12747828;23;20192;-80
2023/10/12 06:36:36;;;;;;;11.20;4.20;;;18.80;99.90;;;;;;12703032;23;20176;-80
2023/10/12 06:46:48;;;;;;;9.65;3.55;;;18.40;99.90;;;;;;12704000;23;20227;-81
2023/10/12 06:52:00;;;;;;;6.85;3.78;;;18.60;99.90;;;;;;12747178;23;20575;-81
2023/10/12 07:02:20;;;;;;;6.30;3.65;;;18.50;99.90;;;;;;12730826;23;20216;-81
2023/10/12 07:07:27;;;;;;;9.75;3.88;;;18.60;99.90;;;;;;12748143;23;20219;-81
2023/10/12 07:12:33;;;;;;;10.70;5.03;;;18.50;99.90;;;;;;12732610;23;20189;-81
2023/10/12 07:17:36;;;;;;;6.22;4.05;;;18.40;99.90;;;;;;12728644;23;20561;-80
2023/10/12 07:22:40;;;;;;;5.40;3.58;;;18.30;99.90;;;;;;12730983;23;20165;-81
2023/10/12 07:27:51;;;;;;;12.50;4.00;;;18.40;99.90;;;;;;12703734;23;20223;-80
2023/10/12 07:32:56;;;;;;;6.55;3.78;;;18.40;99.90;;;;;;12730261;23;20231;-80
2023/10/12 07:38:00;;;;;;;7.43;4.25;;;18.30;99.90;;;;;;12746757;23;20227;-80
2023/10/12 07:43:10;;;;;;;7.63;4.07;;;18.30;99.90;;;;;;12702223;23;20200;-80
2023/10/12 07:48:21;;;;;;;6.82;3.03;;;18.30;99.90;;;;;;12746664;23;20639;-80
2023/10/12 07:53:24;;;;;;;7.88;5.15;;;18.50;99.90;;;;;;12738488;23;20259;-81
2023/10/12 07:58:30;;;;;;;4.25;2.60;;;18.50;99.90;;;;;;12728725;23;20504;-81
2023/10/12 08:03:39;;;;;;;10.68;4.10;;;18.60;99.90;;;;;;12702571;23;20242;-80
2023/10/12 08:08:44;;;;;;;9.82;3.67;;;18.80;99.90;;;;;;12701619;23;20263;-80
2023/10/12 08:13:49;;;;;;;6.40;3.42;;;18.60;99.90;;;;;;12703740;23;20220;-81
2023/10/12 08:24:09;;;;;;;7.63;3.40;;;18.50;99.90;;;;;;12746466;23;20504;-81
2023/10/12 08:45:10;;;;;;;5.95;3.85;;;17.90;99.90;;;;;;12751623;23;20168;-80
2023/10/12 08:55:25;;;;;;;6.18;3.97;;;18.20;99.90;;;;;;12734261;23;20525;-81
2023/10/12 09:05:39;;;;;;;7.22;3.30;;;18.20;99.90;;;;;;12750672;23;20168;-81
2023/10/12 09:16:07;;;;;;;4.80;3.17;;;18.40;99.90;;;;;;12731838;23;20226;-80
2023/10/12 09:21:23;;;;;;;10.88;5.22;;;18.50;99.90;;;;;;12749868;23;20507;-81
2023/10/12 09:26:33;;;;;;;12.88;5.15;;;18.80;99.90;;;;;;12731745;23;20247;-81
2023/10/12 09:36:53;;;;;;;13.20;4.65;;;18.60;99.90;;;;;;12731818;23;20173;-81
2023/10/12 09:42:00;;;;;;;10.02;5.53;;;18.50;99.90;;;;;;12730449;23;20184;-81
2023/10/12 09:47:09;;;;;;;7.82;5.18;;;18.50;99.90;;;;;;12730997;23;20235;-81
2023/10/12 09:52:13;;;;;;;9.10;4.82;;;18.20;99.90;;;;;;12746563;23;20249;-81
2023/10/12 09:57:23;;;;;;;8.27;2.60;;;18.20;99.90;;;;;;12731068;23;20595;-79
2023/10/12 10:02:34;;;;;;;10.52;4.28;;;18.50;99.90;;;;;;12747068;23;20173;-80
2023/10/12 10:07:58;;;;;;;7.75;3.63;;;18.40;99.90;;;;;;12723622;23;20169;-80
2023/10/12 10:13:14;;;;;;;8.38;3.67;;;18.50;99.90;;;;;;12706720;23;20188;-80
2023/10/12 10:18:19;;;;;;;4.05;2.70;;;18.40;99.90;;;;;;12731501;23;20215;-80
2023/10/12 10:23:23;;;;;;;3.70;2.15;;;17.50;99.90;;;;;;12729801;23;20173;-80
2023/10/12 10:28:28;;;;;;;4.82;2.72;;;16.80;99.90;;;;;;12731011;23;20168;-80
2023/10/12 10:33:36;;;;;;;5.57;2.90;;;16.70;99.90;;;;;;12705437;23;20226;-80
2023/10/12 10:38:53;;;;;;;1.63;1.00;;;16.40;99.90;;;;;;12704215;23;20718;-80
2023/10/12 10:43:59;;;;;;;4.90;2.33;;;16.30;99.90;;;;;;12704120;23;20220;-80
2023/10/12 10:49:04;;;;;;;4.82;2.05;;;16.30;99.90;;;;;;12731025;23;20192;-80
2023/10/12 10:54:26;;;;;;;4.35;2.85;;;16.90;99.90;;;;;;12735867;23;20196;-80
2023/10/12 10:59:30;;;;;;;7.53;3.00;;;17.10;99.90;;;;;;12730469;23;20225;-80
2023/10/12 11:15:01;;;;;;;10.20;2.55;;;17.30;99.90;;;;;;12703718;23;20204;-80
2023/10/12 11:20:08;;;;;;;6.03;1.77;;;16.90;99.90;;;;;;12748204;23;20196;-80
2023/10/12 11:25:12;;;;;;;3.45;2.05;;;16.70;99.90;;;;;;12702511;23;20180;-80
2023/10/12 11:30:31;;;;;;;3.35;1.80;;;16.50;99.90;;;;;;12729825;23;20192;-80
2023/10/12 11:35:42;;;;;;;4.35;2.30;;;16.50;99.90;;;;;;12730366;23;20223;-80
2023/10/12 11:40:52;;;;;;;8.40;2.88;;;16.50;99.90;;;;;;12702803;23;20204;-80
2023/10/12 11:46:03;;;;;;;4.53;2.53;;;16.50;99.90;;;;;;12729526;23;20519;-80
2023/10/12 11:51:11;;;;;;;2.63;2.00;;;16.50;99.90;;;;;;12747706;23;20578;-80
2023/10/12 11:56:17;;;;;;;3.88;2.63;;;16.50;99.90;;;;;;12729603;23;20173;-80
2023/10/12 12:01:23;;;;;;;6.95;3.45;;;16.60;99.90;;;;;;12703401;23;20176;-80
2023/10/12 12:06:26;;;;;;;6.22;3.30;;;16.70;99.90;;;;;;12747280;23;20168;-80
2023/10/12 12:11:37;;;;;;;5.70;2.83;;;16.80;99.90;;;;;;12729338;23;20196;-80
2023/10/12 12:16:40;;;;;;;8.15;3.40;;;16.80;99.90;;;;;;12678105;23;20168;-80
2023/10/12 12:21:45;;;;;;;8.07;3.70;;;16.60;99.90;;;;;;12701727;23;20180;-80
2023/10/12 12:26:53;;;;;;;4.50;2.55;;;16.70;99.90;;;;;;12729718;23;20176;-80
2023/10/12 12:31:57;;;;;;;5.30;2.80;;;16.70;99.90;;;;;;12720787;23;20686;-80
2023/10/12 12:37:04;;;;;;;7.22;3.20;;;16.70;99.90;;;;;;12726561;23;20219;-80
2023/10/12 12:42:11;;;;;;;5.03;2.40;;;16.70;99.90;;;;;;12701500;23;20564;-80
2023/10/12 12:47:16;;;;;;;7.13;2.70;;;16.80;99.90;;;;;;12721502;23;20195;-80
2023/10/12 12:52:19;;;;;;;5.72;2.72;;;16.70;99.90;;;;;;12741783;23;20521;-80
2023/10/12 12:57:23;;;;;;;4.07;2.45;;;16.80;99.90;;;;;;12727627;23;20173;-80
2023/10/12 13:02:25;;;;;;;4.80;3.13;;;16.90;99.90;;;;;;12728142;23;20512;-80
2023/10/12 13:07:28;;;;;;;4.68;2.45;;;17.20;99.90;;;;;;12702359;23;20176;-80
2023/10/12 13:12:31;;;;;;;2.85;2.47;;;16.60;99.90;;;;;;12727494;23;21035;-81
2023/10/12 13:17:34;;;;;;;5.80;2.80;;;16.90;99.90;;;;;;12728733;23;20204;-81
2023/10/12 13:22:37;;;;;;;3.13;2.83;;;16.70;99.90;;;;;;12728475;23;20255;-81
2023/10/12 13:27:39;;;;;;;4.47;2.53;;;17.20;99.90;;;;;;12706576;23;20231;-81
2023/10/12 13:32:42;;;;;;;5.03;3.05;;;17.30;99.90;;;;;;12732039;23;20219;-80
2023/10/12 13:37:45;;;;;;;3.97;2.28;;;17.10;99.90;;;;;;12732428;23;20165;-80
2023/10/12 13:42:48;;;;;;;7.95;4.10;;;17.30;99.90;;;;;;12731561;23;20173;-80
2023/10/12 13:47:51;;;;;;;5.65;2.58;;;17.40;99.90;;;;;;12748958;23;20203;-80
2023/10/12 13:52:54;;;;;;;3.90;2.63;;;17.40;99.90;;;;;;12731699;23;20522;-80
2023/10/12 13:57:57;;;;;;;6.82;2.63;;;17.50;99.90;;;;;;12731626;23;20227;-80
2023/10/12 14:03:10;;;;;;;7.57;2.58;;;17.30;99.90;;;;;;12749962;23;20484;-80
2023/10/12 14:08:13;;;;;;;6.53;2.78;;;17.00;99.90;;;;;;12748381;23;20232;-80
2023/10/12 14:13:16;;;;;;;4.35;2.85;;;17.00;99.90;;;;;;12730874;23;20192;-80
2023/10/12 14:18:18;;;;;;;7.38;3.10;;;17.10;99.90;;;;;;12730533;23;20172;-82
2023/10/12 14:23:26;;;;;;;7.57;3.00;;;17.00;99.90;;;;;;12731503;23;20168;-81
2023/10/12 14:28:34;;;;;;;3.53;2.67;;;17.00;99.90;;;;;;12705886;23;20204;-81
2023/10/12 14:33:37;;;;;;;4.15;2.45;;;;;;;;;;12731551;23;20231;-81
2023/10/12 14:38:40;;;;;;;9.27;3.50;;;;;;;;;;12729041;23;20164;-81
2023/10/12 14:43:47;;;;;;;3.25;2.88;;;;;;;;;;12724161;23;20172;-80
2023/10/12 14:48:51;;;;;;;7.30;3.65;;;;;;;;;;12730253;23;20165;-80
2023/10/12 14:53:58;;;;;;;7.07;2.85;;;;;;;;;;12730170;23;20212;-80
2023/10/12 14:59:00;;;;;;;11.68;3.58;;;15.10;99.00;;;;;;12730983;23;20165;-80
2023/10/12 15:04:07;;;;;;;11.80;3.40;;;14.80;99.90;;;;;;12749274;23;20165;-80
2023/10/12 15:09:12;;;;;;;13.57;4.73;;;14.40;99.90;;;;;;12728997;23;20254;-80
2023/10/12 15:14:15;;;;;;;11.23;5.40;;;;;;;;;;12729169;23;20199;-81
2023/10/12 15:19:18;;;;;;;16.10;5.23;;;13.90;99.90;;;;;;12747113;23;20269;-80
2023/10/12 15:24:22;;;;;;;9.50;5.13;;;13.80;99.90;;;;;;12728215;23;20255;-81
2023/10/12 15:29:26;;;;;;;13.70;6.60;;;13.70;99.90;;;;;;12703039;23;20183;-81
2023/10/12 15:34:31;;;;;;;12.60;5.23;;;13.50;99.90;;;;;;12729230;23;20175;-81
2023/10/12 15:39:34;;;;;;;12.63;4.63;;;13.40;99.90;;;;;;12702089;23;20515;-81
2023/10/12 15:44:39;;;;;;;13.40;4.83;;;13.30;99.90;;;;;;12745719;23;20170;-80
2023/10/12 15:49:41;;;;;;;11.50;4.53;;;13.10;99.90;;;;;;12676561;23;20249;-80
2023/10/12 15:54:47;;;;;;;11.07;5.23;;;13.00;99.90;;;;;;12728281;23;20196;-80
2023/10/12 15:59:50;;;;;;;6.50;2.93;;;12.90;99.90;;;;;;12744460;23;20168;-82
2023/10/12 16:04:53;;;;;;;5.03;2.87;;;12.80;99.90;;;;;;12728819;23;20172;-82
2023/10/12 16:09:56;;;;;;;8.47;2.97;;;12.90;99.90;;;;;;12701534;23;20246;-82
2023/10/12 16:14:58;;;;;;;9.03;3.47;;;12.90;99.90;;;;;;12725718;23;20254;-82
2023/10/12 16:20:05;;;;;;;14.27;7.50;;;12.70;99.90;;;;;;12676182;23;20180;-82
2023/10/12 16:25:12;;;;;;;14.27;5.30;;;12.40;99.90;;;;;;12727280;23;20236;-80
2023/10/12 16:30:18;;;;;;;12.07;4.47;;;12.00;99.90;;;;;;12746830;23;20186;-80
2023/10/12 16:35:25;;;;;;;10.87;5.33;;;11.60;99.90;;;;;;12745428;23;20168;-80
2023/10/12 16:40:31;;;;;;;25.90;5.80;;;11.10;99.90;;;;;;12740960;23;20176;-79
2023/10/12 16:45:35;;;;;;;15.17;9.30;;;10.70;99.90;;;;;;12744485;23;20200;-80
2023/10/12 16:50:41;;;;;;;16.77;6.13;;;10.50;99.90;;;;;;12725997;23;20184;-80
2023/10/12 16:55:45;;;;;;;7.50;5.70;;;10.50;99.90;;;;;;12702420;23;20255;-80
2023/10/12 17:00:56;;;;;;;12.77;5.77;;;10.40;99.90;;;;;;12730046;23;20172;-80
2023/10/12 17:06:00;;;;;;;11.43;5.87;;;10.40;99.90;;;;;;12749669;23;20173;-80
2023/10/12 17:11:05;;;;;;;21.53;7.37;;;10.20;99.90;;;;;;12705131;23;20193;-80
2023/10/12 17:16:08;;;;;;;14.53;7.63;;;10.00;99.90;;;;;;12703357;23;20231;-80
2023/10/12 17:21:12;;;;;;;9.23;5.77;;;9.70;99.90;;;;;;12731620;23;20172;-81
2023/10/12 17:26:15;;;;;;;16.67;10.10;;;9.60;99.90;;;;;;12701623;23;20180;-81
2023/10/12 17:31:18;;;;;;;21.13;8.97;;;9.40;99.90;;;;;;12728713;23;20188;-81
2023/10/12 17:36:22;;;;;;;15.37;8.73;;;9.30;99.90;;;;;;12730631;23;20239;-81
2023/10/12 17:41:25;;;;;;;15.23;7.00;;;9.30;99.90;;;;;;12703879;23;20184;-81
2023/10/12 17:46:29;;;;;;;15.07;7.93;;;9.20;99.90;;;;;;12705013;23;20180;-81
2023/10/12 17:51:34;;;;;;;10.13;6.73;;;9.20;99.90;;;;;;12705330;23;20196;-81
2023/10/12 17:56:38;;;;;;;17.03;7.70;;;9.00;99.90;;;;;;12704637;23;20184;-81
2023/10/12 18:01:41;;;;;;;8.47;6.73;;;8.80;99.90;;;;;;12748757;23;20273;-81
2023/10/12 18:06:44;;;;;;;15.63;8.83;;;8.60;99.90;;;;;;12705155;23;20243;-81
2023/10/12 18:11:47;;;;;;;15.30;8.03;;;8.70;99.90;;;;;;12730906;23;20192;-81
2023/10/12 18:16:49;;;;;;;21.83;10.07;;;8.60;99.90;;;;;;12704253;23;20631;-81
2023/10/12 18:21:52;;;;;;;17.97;9.40;;;8.60;99.90;;;;;;12705617;23;20181;-81
2023/10/12 18:26:55;;;;;;;21.17;11.90;;;8.50;99.90;;;;;;12731161;23;20187;-81
2023/10/12 18:31:59;;;;;;;6.10;2.83;;;8.60;99.90;;;;;;12704787;23;20266;-82
2023/10/12 18:37:03;;;;;;;6.07;3.57;;;8.70;99.90;;;;;;12727501;23;20212;-82
2023/10/12 18:42:14;;;;;;;8.23;4.87;;;9.10;99.90;;;;;;12724900;23;20640;-82
2023/10/12 18:47:17;;;;;;;9.40;6.27;;;9.40;99.90;;;;;;12699878;23;20709;-82
2023/10/12 18:52:20;;;;;;;20.60;9.53;;;9.40;99.90;;;;;;12725266;23;20677;-81
2023/10/12 18:57:22;;;;;;;15.27;7.17;;;9.80;99.90;;;;;;12707070;23;20173;-81
2023/10/12 19:02:25;;;;;;;14.03;8.37;;;10.10;99.90;;;;;;12730588;23;20502;-82
2023/10/12 19:07:28;;;;;;;20.80;9.03;;;10.20;99.90;;;;;;12705678;23;20242;-81
2023/10/12 19:12:31;;;;;;;20.80;11.87;;;10.30;99.90;;;;;;12729898;23;20180;-81
2023/10/12 19:17:34;;;;;;;24.33;13.40;;;10.20;99.90;;;;;;12728757;23;20168;-81
2023/10/12 19:22:39;;;;;;;36.73;21.20;;;10.30;99.90;;;;;;12729394;23;20175;-81
2023/10/12 19:27:42;;;;;;;31.63;19.43;;;10.40;99.90;;;;;;12702833;23;20240;-81
2023/10/12 19:32:49;;;;;;;36.03;21.23;;;10.50;99.90;;;;;;12703831;23;20531;-81
2023/10/12 19:37:52;;;;;;;39.60;23.53;;;10.80;99.90;;;;;;12730369;23;20176;-82
2023/10/12 19:43:00;;;;;;;22.23;16.83;;;10.70;99.90;;;;;;12703927;23;20188;-82
2023/10/12 19:48:03;;;;;;;43.30;24.87;;;10.60;99.90;;;;;;12728606;23;20297;-81
2023/10/12 19:53:06;;;;;;;27.83;17.17;;;10.30;99.90;;;;;;12704107;23;20192;-81
2023/10/12 19:58:09;;;;;;;50.67;28.50;;;9.80;99.90;;;;;;12728831;23;20177;-82
2023/10/12 20:08:18;;;;;;;57.13;36.10;;;9.60;99.90;;;;;;12730070;23;20172;-81
2023/10/12 20:13:21;;;;;;;56.37;31.50;;;9.40;99.90;;;;;;12702793;23;20598;-81
2023/10/12 20:18:23;;;;;;;69.33;37.83;;;9.70;99.90;;;;;;12729535;23;20168;-81
2023/10/12 20:23:26;;;;;;;59.63;37.50;;;9.50;99.90;;;;;;12729255;23;20219;-82
2023/10/12 20:28:30;;;;;;;59.13;35.90;;;9.30;99.90;;;;;;12730823;23;20284;-82
2023/10/12 20:33:33;;;;;;;73.27;37.83;;;9.20;99.90;;;;;;12726726;23;20586;-82
2023/10/12 20:38:35;;;;;;;67.00;38.43;;;9.00;99.90;;;;;;12744421;23;20203;-82
2023/10/12 20:43:38;;;;;;;76.20;38.30;;;9.00;99.90;;;;;;12728152;23;20631;-82
2023/10/12 20:48:41;;;;;;;42.33;26.43;;;9.00;99.90;;;;;;12728014;23;20211;-81
2023/10/12 20:53:45;;;;;;;50.97;27.13;;;9.00;99.90;;;;;;12729126;23;20234;-82
2023/10/12 20:58:48;;;;;;;42.20;28.40;;;9.10;99.90;;;;;;12729164;23;20492;-82
2023/10/12 21:03:53;;;;;;;47.60;25.50;;;9.00;99.90;;;;;;12729131;23;20226;-82
2023/10/12 21:09:00;;;;;;;42.57;27.40;;;9.00;99.90;;;;;;12746821;23;20165;-81
2023/10/12 21:14:04;;;;;;;36.73;21.40;;;9.10;99.90;;;;;;12702202;23;20259;-81
2023/10/12 21:19:13;;;;;;;57.67;30.87;;;8.90;99.90;;;;;;12703193;23;20230;-81
2023/10/12 21:24:19;;;;;;;47.77;24.03;;;8.90;99.90;;;;;;12701902;23;20578;-82
2023/10/12 21:29:21;;;;;;;48.80;24.97;;;8.90;99.90;;;;;;12744949;23;20172;-82
2023/10/12 21:34:25;;;;;;;38.63;23.23;;;9.30;99.90;;;;;;12703210;23;20196;-82
2023/10/12 21:39:44;;;;;;;30.67;18.80;;;9.20;99.90;;;;;;12727116;23;20176;-81
2023/10/12 21:44:47;;;;;;;37.77;19.07;;;9.10;99.90;;;;;;12729281;23;20171;-81
2023/10/12 21:49:49;;;;;;;40.17;22.47;;;9.10;99.90;;;;;;12730847;23;20180;-81
2023/10/12 21:54:52;;;;;;;32.30;20.00;;;8.90;99.90;;;;;;12731834;23;20261;-82
2023/10/12 21:59:56;;;;;;;29.07;17.83;;;8.60;99.90;;;;;;12731785;23;20199;-82
2023/10/12 22:05:00;;;;;;;30.23;17.43;;;8.90;99.90;;;;;;12680238;23;20178;-82
2023/10/12 22:10:03;;;;;;;27.67;17.17;;;9.10;99.90;;;;;;12730504;23;20175;-81
2023/10/12 22:15:19;;;;;;;28.93;15.23;;;8.90;99.90;;;;;;12728545;23;20231;-82
2023/10/12 22:20:22;;;;;;;39.83;19.43;;;8.90;99.90;;;;;;12745720;23;20167;-82
2023/10/12 22:25:27;;;;;;;45.13;21.80;;;8.90;99.90;;;;;;12704626;23;20709;-82
2023/10/12 22:30:31;;;;;;;40.60;17.43;;;8.90;99.90;;;;;;12749796;23;20695;-82
2023/10/12 22:35:33;;;;;;;33.03;19.57;;;9.00;99.90;;;;;;12704351;23;20196;-82
2023/10/12 22:40:48;;;;;;;39.70;19.00;;;9.10;99.90;;;;;;12719393;23;20168;-82
2023/10/12 22:45:50;;;;;;;34.30;18.37;;;9.20;99.90;;;;;;12730763;23;20177;-82
2023/10/12 22:50:53;;;;;;;36.83;18.30;;;9.40;99.90;;;;;;12730526;23;20207;-82
2023/10/12 22:55:56;;;;;;;29.07;16.40;;;9.60;99.90;;;;;;12668761;23;20679;-81
2023/10/12 23:01:00;;;;;;;27.97;15.03;;;9.70;99.90;;;;;;12643364;23;20703;-81
2023/10/12 23:06:06;;;;;;;26.53;14.67;;;9.70;99.90;;;;;;12669505;23;20165;-82
2023/10/12 23:11:21;;;;;;;18.33;10.77;;;9.70;99.90;;;;;;12669050;23;20212;-81
2023/10/12 23:16:32;;;;;;;25.13;16.10;;;9.80;99.90;;;;;;12642929;23;20564;-81
2023/10/12 23:21:38;;;;;;;16.87;10.47;;;9.90;99.90;;;;;;12659902;23;20173;-82
2023/10/12 23:26:41;;;;;;;25.97;13.70;;;9.90;99.90;;;;;;12678915;23;20181;-81
2023/10/12 23:31:43;;;;;;;18.37;12.30;;;9.90;99.90;;;;;;12669048;23;20649;-81
2023/10/12 23:36:46;;;;;;;22.00;12.90;;;10.00;99.90;;;;;;12669514;23;20177;-81
2023/10/12 23:41:52;;;;;;;20.63;13.03;;;9.90;99.90;;;;;;12669315;23;20555;-81
2023/10/12 23:46:57;;;;;;;14.83;10.67;;;10.00;99.90;;;;;;12668840;23;20165;-81
2023/10/12 23:51:59;;;;;;;18.83;11.53;;;10.30;99.90;;;;;;12656381;23;20208;-81
2023/10/12 23:57:02;;;;;;;10.87;8.53;;;10.50;99.90;;;;;;12729892;23;20215;-81
